sensor_id;sensor_type;location;lat;lon;timestamp;temperature;humidity
580;DHT22;276;48.392;9.950;2023-07-13T00:01:37;21.60;99.90
580;DHT22;276;48.392;9.950;2023-07-13T00:04:06;21.60;99.90
580;DHT22;276;48.392;9.950;2023-07-13T00:06:32;21.70;99.90
580;DHT22;276;48.392;9.950;2023-07-13T00:09:01;21.70;99.90
580;DHT22;276;48.392;9.950;2023-07-13T00:11:29;21.70;99.90
580;DHT22;276;48.392;9.950;2023-07-13T00:13:55;21.70;99.90
580;DHT22;276;48.392;9.950;2023-07-13T00:16:23;21.70;99.90
580;DHT22;276;48.392;9.950;2023-07-13T00:18:48;21.70;99.90
580;DHT22;276;48.392;9.950;2023-07-13T00:21:14;21.60;99.90
580;DHT22;276;48.392;9.950;2023-07-13T00:23:41;21.60;99.90
580;DHT22;276;48.392;9.950;2023-07-13T00:26:08;21.60;99.90
580;DHT22;276;48.392;9.950;2023-07-13T00:28:35;21.50;99.90
580;DHT22;276;48.392;9.950;2023-07-13T00:31:01;21.50;99.90
580;DHT22;276;48.392;9.950;2023-07-13T00:33:28;21.50;99.90
580;DHT22;276;48.392;9.950;2023-07-13T00:35:55;21.40;99.90
580;DHT22;276;48.392;9.950;2023-07-13T00:38:22;21.50;99.90
580;DHT22;276;48.392;9.950;2023-07-13T00:40:48;21.50;99.90
580;DHT22;276;48.392;9.950;2023-07-13T00:43:21;21.40;99.90
580;DHT22;276;48.392;9.950;2023-07-13T00:48:19;21.40;99.90
580;DHT22;276;48.392;9.950;2023-07-13T00:50:49;21.40;99.90
580;DHT22;276;48.392;9.950;2023-07-13T00:53:17;21.40;99.90
580;DHT22;276;48.392;9.950;2023-07-13T00:55:43;21.40;99.90
580;DHT22;276;48.392;9.950;2023-07-13T00:58:11;21.30;99.90
580;DHT22;276;48.392;9.950;2023-07-13T01:00:38;21.30;99.90
580;DHT22;276;48.392;9.950;2023-07-13T01:03:04;21.30;99.90
580;DHT22;276;48.392;9.950;2023-07-13T01:05:32;21.30;99.90
580;DHT22;276;48.392;9.950;2023-07-13T01:08:02;21.30;99.90
580;DHT22;276;48.392;9.950;2023-07-13T01:10:30;21.20;99.90
580;DHT22;276;48.392;9.950;2023-07-13T01:13:07;21.20;99.90
580;DHT22;276;48.392;9.950;2023-07-13T01:18:14;21.10;99.90
580;DHT22;276;48.392;9.950;2023-07-13T01:20:41;21.00;99.90
580;DHT22;276;48.392;9.950;2023-07-13T01:23:10;21.00;99.90
580;DHT22;276;48.392;9.950;2023-07-13T01:25:37;21.00;99.90
580;DHT22;276;48.392;9.950;2023-07-13T01:28:07;21.00;99.90
580;DHT22;276;48.392;9.950;2023-07-13T01:30:38;21.00;99.90
580;DHT22;276;48.392;9.950;2023-07-13T01:33:08;20.90;99.90
580;DHT22;276;48.392;9.950;2023-07-13T01:35:35;20.90;99.90
580;DHT22;276;48.392;9.950;2023-07-13T01:38:04;20.90;99.90
580;DHT22;276;48.392;9.950;2023-07-13T01:40:32;20.80;99.90
580;DHT22;276;48.392;9.950;2023-07-13T01:43:00;20.80;99.90
580;DHT22;276;48.392;9.950;2023-07-13T01:45:26;20.80;99.90
580;DHT22;276;48.392;9.950;2023-07-13T01:47:54;20.70;99.90
580;DHT22;276;48.392;9.950;2023-07-13T01:50:19;20.70;99.90
580;DHT22;276;48.392;9.950;2023-07-13T01:52:45;20.80;99.90
580;DHT22;276;48.392;9.950;2023-07-13T01:55:13;20.80;99.90
580;DHT22;276;48.392;9.950;2023-07-13T01:57:39;20.80;99.90
580;DHT22;276;48.392;9.950;2023-07-13T02:00:06;20.80;99.90
580;DHT22;276;48.392;9.950;2023-07-13T02:02:32;20.80;99.90
580;DHT22;276;48.392;9.950;2023-07-13T02:05:00;20.80;99.90
580;DHT22;276;48.392;9.950;2023-07-13T02:07:28;20.80;99.90
580;DHT22;276;48.392;9.950;2023-07-13T02:09:54;20.80;99.90
580;DHT22;276;48.392;9.950;2023-07-13T02:12:19;20.70;99.90
580;DHT22;276;48.392;9.950;2023-07-13T02:14:45;20.70;99.90
580;DHT22;276;48.392;9.950;2023-07-13T02:17:11;20.70;99.90
580;DHT22;276;48.392;9.950;2023-07-13T02:19:36;20.70;99.90
580;DHT22;276;48.392;9.950;2023-07-13T02:22:05;20.70;99.90
580;DHT22;276;48.392;9.950;2023-07-13T02:24:32;20.70;99.90
580;DHT22;276;48.392;9.950;2023-07-13T02:26:58;20.70;99.90
580;DHT22;276;48.392;9.950;2023-07-13T02:29:26;20.70;99.90
580;DHT22;276;48.392;9.950;2023-07-13T02:31:52;20.70;99.90
580;DHT22;276;48.392;9.950;2023-07-13T02:34:19;20.80;99.90
580;DHT22;276;48.392;9.950;2023-07-13T02:36:47;20.70;99.90
580;DHT22;276;48.392;9.950;2023-07-13T02:39:13;20.70;99.90
580;DHT22;276;48.392;9.950;2023-07-13T02:41:39;20.70;99.90
580;DHT22;276;48.392;9.950;2023-07-13T02:44:07;20.70;99.90
580;DHT22;276;48.392;9.950;2023-07-13T02:46:37;20.70;99.90
580;DHT22;276;48.392;9.950;2023-07-13T02:49:03;20.70;99.90
580;DHT22;276;48.392;9.950;2023-07-13T02:51:29;20.70;99.90
580;DHT22;276;48.392;9.950;2023-07-13T02:53:55;20.70;99.90
580;DHT22;276;48.392;9.950;2023-07-13T02:56:24;20.70;99.90
580;DHT22;276;48.392;9.950;2023-07-13T02:58:54;20.70;99.90
580;DHT22;276;48.392;9.950;2023-07-13T03:01:20;20.60;99.90
580;DHT22;276;48.392;9.950;2023-07-13T03:03:48;20.60;99.90
580;DHT22;276;48.392;9.950;2023-07-13T03:06:14;20.50;99.90
580;DHT22;276;48.392;9.950;2023-07-13T03:08:40;20.50;99.90
580;DHT22;276;48.392;9.950;2023-07-13T03:11:16;20.50;99.90
580;DHT22;276;48.392;9.950;2023-07-13T03:13:42;20.50;99.90
580;DHT22;276;48.392;9.950;2023-07-13T03:16:09;20.50;99.90
580;DHT22;276;48.392;9.950;2023-07-13T03:18:38;20.50;99.90
580;DHT22;276;48.392;9.950;2023-07-13T03:21:05;20.50;99.90
580;DHT22;276;48.392;9.950;2023-07-13T03:23:31;20.40;99.90
580;DHT22;276;48.392;9.950;2023-07-13T03:26:10;20.40;99.90
580;DHT22;276;48.392;9.950;2023-07-13T03:28:36;20.30;99.90
580;DHT22;276;48.392;9.950;2023-07-13T03:31:10;20.30;99.90
580;DHT22;276;48.392;9.950;2023-07-13T03:33:38;20.30;99.90
580;DHT22;276;48.392;9.950;2023-07-13T03:36:06;20.30;99.90
580;DHT22;276;48.392;9.950;2023-07-13T03:38:34;20.20;99.90
580;DHT22;276;48.392;9.950;2023-07-13T03:41:00;20.20;99.90
580;DHT22;276;48.392;9.950;2023-07-13T03:43:26;20.20;99.90
580;DHT22;276;48.392;9.950;2023-07-13T03:45:51;20.10;99.90
580;DHT22;276;48.392;9.950;2023-07-13T03:48:17;20.10;99.90
580;DHT22;276;48.392;9.950;2023-07-13T03:50:43;20.10;99.90
580;DHT22;276;48.392;9.950;2023-07-13T03:53:11;20.00;99.90
580;DHT22;276;48.392;9.950;2023-07-13T03:55:39;20.00;99.90
580;DHT22;276;48.392;9.950;2023-07-13T03:58:25;19.90;99.90
580;DHT22;276;48.392;9.950;2023-07-13T04:00:52;19.90;99.90
580;DHT22;276;48.392;9.950;2023-07-13T04:03:18;19.90;99.90
580;DHT22;276;48.392;9.950;2023-07-13T04:05:43;19.90;99.90
580;DHT22;276;48.392;9.950;2023-07-13T04:08:11;19.90;99.90
580;DHT22;276;48.392;9.950;2023-07-13T04:10:37;19.90;99.90
580;DHT22;276;48.392;9.950;2023-07-13T04:13:04;19.90;99.90
580;DHT22;276;48.392;9.950;2023-07-13T04:15:33;19.90;99.90
580;DHT22;276;48.392;9.950;2023-07-13T04:18:01;19.90;99.90
580;DHT22;276;48.392;9.950;2023-07-13T04:20:28;19.90;99.90
580;DHT22;276;48.392;9.950;2023-07-13T04:22:54;19.90;99.90
580;DHT22;276;48.392;9.950;2023-07-13T04:25:21;19.90;99.90
580;DHT22;276;48.392;9.950;2023-07-13T04:27:49;20.00;99.90
580;DHT22;276;48.392;9.950;2023-07-13T04:30:15;20.00;99.90
580;DHT22;276;48.392;9.950;2023-07-13T04:32:41;20.00;99.90
580;DHT22;276;48.392;9.950;2023-07-13T04:35:06;19.90;99.90
580;DHT22;276;48.392;9.950;2023-07-13T04:37:32;19.90;99.90
580;DHT22;276;48.392;9.950;2023-07-13T04:40:01;19.90;99.90
580;DHT22;276;48.392;9.950;2023-07-13T04:42:26;19.90;99.90
580;DHT22;276;48.392;9.950;2023-07-13T04:44:52;19.90;99.90
580;DHT22;276;48.392;9.950;2023-07-13T04:47:18;19.90;99.90
580;DHT22;276;48.392;9.950;2023-07-13T04:49:46;19.90;99.90
580;DHT22;276;48.392;9.950;2023-07-13T04:52:13;19.90;99.90
580;DHT22;276;48.392;9.950;2023-07-13T04:54:42;19.90;99.90
580;DHT22;276;48.392;9.950;2023-07-13T04:57:07;19.90;99.90
580;DHT22;276;48.392;9.950;2023-07-13T04:59:34;19.90;99.90
580;DHT22;276;48.392;9.950;2023-07-13T05:01:59;19.80;99.90
580;DHT22;276;48.392;9.950;2023-07-13T05:04:28;19.80;99.90
580;DHT22;276;48.392;9.950;2023-07-13T05:06:54;19.80;99.90
580;DHT22;276;48.392;9.950;2023-07-13T05:09:19;19.80;99.90
580;DHT22;276;48.392;9.950;2023-07-13T05:11:45;19.80;99.90
580;DHT22;276;48.392;9.950;2023-07-13T05:14:10;19.80;99.90
580;DHT22;276;48.392;9.950;2023-07-13T05:16:36;19.90;99.90
580;DHT22;276;48.392;9.950;2023-07-13T05:19:02;19.90;99.90
580;DHT22;276;48.392;9.950;2023-07-13T05:21:28;19.90;99.90
580;DHT22;276;48.392;9.950;2023-07-13T05:23:56;20.00;99.90
580;DHT22;276;48.392;9.950;2023-07-13T05:26:22;20.00;99.90
580;DHT22;276;48.392;9.950;2023-07-13T05:28:47;20.00;99.90
580;DHT22;276;48.392;9.950;2023-07-13T05:31:13;20.00;99.90
580;DHT22;276;48.392;9.950;2023-07-13T05:33:39;20.00;99.90
580;DHT22;276;48.392;9.950;2023-07-13T05:36:07;20.00;99.90
580;DHT22;276;48.392;9.950;2023-07-13T05:38:33;20.00;99.90
580;DHT22;276;48.392;9.950;2023-07-13T05:40:59;20.00;99.90
580;DHT22;276;48.392;9.950;2023-07-13T05:43:25;20.10;99.90
580;DHT22;276;48.392;9.950;2023-07-13T05:45:56;20.10;99.90
580;DHT22;276;48.392;9.950;2023-07-13T05:48:22;20.10;99.90
580;DHT22;276;48.392;9.950;2023-07-13T05:50:51;20.10;99.90
580;DHT22;276;48.392;9.950;2023-07-13T05:53:16;20.20;99.90
580;DHT22;276;48.392;9.950;2023-07-13T05:55:46;20.20;99.90
580;DHT22;276;48.392;9.950;2023-07-13T05:58:13;20.20;99.90
580;DHT22;276;48.392;9.950;2023-07-13T06:00:39;20.20;99.90
580;DHT22;276;48.392;9.950;2023-07-13T06:03:06;20.30;99.90
580;DHT22;276;48.392;9.950;2023-07-13T06:05:35;20.30;99.90
580;DHT22;276;48.392;9.950;2023-07-13T06:08:03;20.40;99.90
580;DHT22;276;48.392;9.950;2023-07-13T06:10:32;20.40;99.90
580;DHT22;276;48.392;9.950;2023-07-13T06:12:58;20.40;99.90
580;DHT22;276;48.392;9.950;2023-07-13T06:15:24;20.40;99.90
580;DHT22;276;48.392;9.950;2023-07-13T06:17:49;20.40;99.90
580;DHT22;276;48.392;9.950;2023-07-13T06:20:15;20.40;99.90
580;DHT22;276;48.392;9.950;2023-07-13T06:22:40;20.50;99.90
580;DHT22;276;48.392;9.950;2023-07-13T06:25:11;20.50;99.90
580;DHT22;276;48.392;9.950;2023-07-13T06:27:39;20.60;99.90
580;DHT22;276;48.392;9.950;2023-07-13T06:30:05;20.70;99.90
580;DHT22;276;48.392;9.950;2023-07-13T06:32:31;20.70;99.90
580;DHT22;276;48.392;9.950;2023-07-13T06:34:56;20.70;99.90
580;DHT22;276;48.392;9.950;2023-07-13T06:37:22;20.70;99.90
580;DHT22;276;48.392;9.950;2023-07-13T06:39:50;20.80;99.90
580;DHT22;276;48.392;9.950;2023-07-13T06:42:19;20.90;99.90
580;DHT22;276;48.392;9.950;2023-07-13T06:44:44;20.90;99.90
580;DHT22;276;48.392;9.950;2023-07-13T06:47:10;21.00;99.90
580;DHT22;276;48.392;9.950;2023-07-13T06:49:35;21.10;99.90
580;DHT22;276;48.392;9.950;2023-07-13T06:52:03;21.10;99.90
580;DHT22;276;48.392;9.950;2023-07-13T06:54:29;21.20;99.90
580;DHT22;276;48.392;9.950;2023-07-13T06:56:55;21.20;99.90
580;DHT22;276;48.392;9.950;2023-07-13T06:59:23;21.20;99.90
580;DHT22;276;48.392;9.950;2023-07-13T07:01:48;21.20;99.90
580;DHT22;276;48.392;9.950;2023-07-13T07:04:14;21.20;99.90
580;DHT22;276;48.392;9.950;2023-07-13T07:06:39;21.20;99.90
580;DHT22;276;48.392;9.950;2023-07-13T07:09:05;21.20;99.90
580;DHT22;276;48.392;9.950;2023-07-13T07:11:31;21.30;99.90
580;DHT22;276;48.392;9.950;2023-07-13T07:13:58;21.30;99.90
580;DHT22;276;48.392;9.950;2023-07-13T07:16:24;21.30;99.90
580;DHT22;276;48.392;9.950;2023-07-13T07:18:50;21.40;99.90
580;DHT22;276;48.392;9.950;2023-07-13T07:21:16;21.30;99.90
580;DHT22;276;48.392;9.950;2023-07-13T07:23:42;21.30;99.90
580;DHT22;276;48.392;9.950;2023-07-13T07:26:08;21.30;99.90
580;DHT22;276;48.392;9.950;2023-07-13T07:28:36;21.30;99.90
580;DHT22;276;48.392;9.950;2023-07-13T07:31:01;21.30;99.90
580;DHT22;276;48.392;9.950;2023-07-13T07:33:27;21.30;99.90
580;DHT22;276;48.392;9.950;2023-07-13T07:35:55;21.40;99.90
580;DHT22;276;48.392;9.950;2023-07-13T07:38:20;21.40;99.90
580;DHT22;276;48.392;9.950;2023-07-13T07:40:49;21.40;99.90
580;DHT22;276;48.392;9.950;2023-07-13T07:43:14;21.50;99.90
580;DHT22;276;48.392;9.950;2023-07-13T07:45:40;21.60;99.90
580;DHT22;276;48.392;9.950;2023-07-13T07:48:07;21.60;99.90
580;DHT22;276;48.392;9.950;2023-07-13T07:50:37;21.70;99.90
580;DHT22;276;48.392;9.950;2023-07-13T07:53:05;21.70;99.90
580;DHT22;276;48.392;9.950;2023-07-13T07:55:34;21.70;99.90
580;DHT22;276;48.392;9.950;2023-07-13T07:58:00;21.70;99.90
580;DHT22;276;48.392;9.950;2023-07-13T08:00:26;21.80;99.90
580;DHT22;276;48.392;9.950;2023-07-13T08:02:52;21.80;99.90
580;DHT22;276;48.392;9.950;2023-07-13T08:05:18;21.80;99.90
580;DHT22;276;48.392;9.950;2023-07-13T08:07:43;21.90;99.90
580;DHT22;276;48.392;9.950;2023-07-13T08:10:09;21.80;99.90
580;DHT22;276;48.392;9.950;2023-07-13T08:12:38;21.80;99.90
580;DHT22;276;48.392;9.950;2023-07-13T08:15:09;21.90;99.90
580;DHT22;276;48.392;9.950;2023-07-13T08:17:35;21.90;99.90
580;DHT22;276;48.392;9.950;2023-07-13T08:20:01;21.90;99.90
580;DHT22;276;48.392;9.950;2023-07-13T08:22:29;21.90;99.90
580;DHT22;276;48.392;9.950;2023-07-13T08:24:58;21.90;99.90
580;DHT22;276;48.392;9.950;2023-07-13T08:27:24;21.80;99.90
580;DHT22;276;48.392;9.950;2023-07-13T08:29:54;21.80;99.90
580;DHT22;276;48.392;9.950;2023-07-13T08:32:21;21.80;99.90
580;DHT22;276;48.392;9.950;2023-07-13T08:34:47;21.80;99.90
580;DHT22;276;48.392;9.950;2023-07-13T08:37:16;21.80;99.90
580;DHT22;276;48.392;9.950;2023-07-13T08:39:42;21.80;99.90
580;DHT22;276;48.392;9.950;2023-07-13T08:45:52;21.70;99.90
580;DHT22;276;48.392;9.950;2023-07-13T08:47:59;21.70;99.90
580;DHT22;276;48.392;9.950;2023-07-13T08:50:33;21.70;99.90
580;DHT22;276;48.392;9.950;2023-07-13T08:53:03;21.70;99.90
580;DHT22;276;48.392;9.950;2023-07-13T08:55:33;21.70;99.90
580;DHT22;276;48.392;9.950;2023-07-13T08:58:13;21.80;99.90
580;DHT22;276;48.392;9.950;2023-07-13T09:03:18;21.80;99.90
580;DHT22;276;48.392;9.950;2023-07-13T09:05:55;21.80;99.90
580;DHT22;276;48.392;9.950;2023-07-13T09:08:33;21.90;99.90
580;DHT22;276;48.392;9.950;2023-07-13T09:11:32;22.00;99.90
580;DHT22;276;48.392;9.950;2023-07-13T09:14:13;22.10;99.90
580;DHT22;276;48.392;9.950;2023-07-13T09:16:46;22.10;99.90
580;DHT22;276;48.392;9.950;2023-07-13T09:19:24;22.20;99.90
580;DHT22;276;48.392;9.950;2023-07-13T09:21:52;22.10;99.90
580;DHT22;276;48.392;9.950;2023-07-13T09:24:38;22.20;99.90
580;DHT22;276;48.392;9.950;2023-07-13T09:27:22;22.30;99.90
580;DHT22;276;48.392;9.950;2023-07-13T09:29:54;22.40;99.90
580;DHT22;276;48.392;9.950;2023-07-13T09:32:25;22.60;99.90
580;DHT22;276;48.392;9.950;2023-07-13T09:34:54;22.70;99.90
580;DHT22;276;48.392;9.950;2023-07-13T09:37:22;22.80;99.90
580;DHT22;276;48.392;9.950;2023-07-13T09:39:49;22.80;99.30
580;DHT22;276;48.392;9.950;2023-07-13T09:42:20;22.90;99.40
580;DHT22;276;48.392;9.950;2023-07-13T09:44:56;23.00;99.70
580;DHT22;276;48.392;9.950;2023-07-13T09:47:26;23.10;99.60
580;DHT22;276;48.392;9.950;2023-07-13T09:50:03;23.10;98.60
580;DHT22;276;48.392;9.950;2023-07-13T09:57:52;23.40;98.30
580;DHT22;276;48.392;9.950;2023-07-13T10:00:23;23.50;98.10
580;DHT22;276;48.392;9.950;2023-07-13T10:02:59;23.50;97.50
580;DHT22;276;48.392;9.950;2023-07-13T10:05:27;23.60;98.10
580;DHT22;276;48.392;9.950;2023-07-13T10:07:56;23.80;98.50
580;DHT22;276;48.392;9.950;2023-07-13T10:10:23;23.80;98.00
580;DHT22;276;48.392;9.950;2023-07-13T10:12:49;24.00;98.30
580;DHT22;276;48.392;9.950;2023-07-13T10:15:23;24.10;97.60
580;DHT22;276;48.392;9.950;2023-07-13T10:17:52;24.20;97.70
580;DHT22;276;48.392;9.950;2023-07-13T10:20:18;24.30;97.70
580;DHT22;276;48.392;9.950;2023-07-13T10:25:19;24.40;96.70
580;DHT22;276;48.392;9.950;2023-07-13T10:27:46;24.50;97.30
580;DHT22;276;48.392;9.950;2023-07-13T10:30:29;24.60;96.90
580;DHT22;276;48.392;9.950;2023-07-13T10:33:02;24.60;96.20
580;DHT22;276;48.392;9.950;2023-07-13T10:35:29;24.60;95.90
580;DHT22;276;48.392;9.950;2023-07-13T10:40:36;24.40;96.60
580;DHT22;276;48.392;9.950;2023-07-13T10:43:09;24.50;96.60
580;DHT22;276;48.392;9.950;2023-07-13T10:45:37;24.50;95.70
580;DHT22;276;48.392;9.950;2023-07-13T10:48:06;24.50;95.50
580;DHT22;276;48.392;9.950;2023-07-13T10:50:37;24.60;96.00
580;DHT22;276;48.392;9.950;2023-07-13T10:53:28;24.70;95.60
580;DHT22;276;48.392;9.950;2023-07-13T10:58:38;24.80;94.90
580;DHT22;276;48.392;9.950;2023-07-13T11:01:16;24.80;94.20
580;DHT22;276;48.392;9.950;2023-07-13T11:03:54;24.90;95.00
580;DHT22;276;48.392;9.950;2023-07-13T11:08:58;25.20;95.40
580;DHT22;276;48.392;9.950;2023-07-13T11:21:33;25.50;93.60
580;DHT22;276;48.392;9.950;2023-07-13T11:24:28;25.60;93.30
580;DHT22;276;48.392;9.950;2023-07-13T11:32:00;26.00;93.00
580;DHT22;276;48.392;9.950;2023-07-13T11:34:38;26.00;92.40
580;DHT22;276;48.392;9.950;2023-07-13T11:37:11;26.00;92.30
580;DHT22;276;48.392;9.950;2023-07-13T11:39:42;26.00;91.90
580;DHT22;276;48.392;9.950;2023-07-13T11:42:15;25.90;91.60
580;DHT22;276;48.392;9.950;2023-07-13T11:44:49;25.90;91.80
580;DHT22;276;48.392;9.950;2023-07-13T11:47:20;25.80;89.80
580;DHT22;276;48.392;9.950;2023-07-13T11:49:53;25.60;90.30
580;DHT22;276;48.392;9.950;2023-07-13T11:52:41;25.50;90.40
580;DHT22;276;48.392;9.950;2023-07-13T11:55:18;25.50;91.00
580;DHT22;276;48.392;9.950;2023-07-13T11:57:53;25.60;91.90
580;DHT22;276;48.392;9.950;2023-07-13T12:00:25;25.60;90.90
580;DHT22;276;48.392;9.950;2023-07-13T12:02:54;25.50;89.90
580;DHT22;276;48.392;9.950;2023-07-13T12:05:21;25.60;91.00
580;DHT22;276;48.392;9.950;2023-07-13T12:07:52;25.70;91.70
580;DHT22;276;48.392;9.950;2023-07-13T12:12:58;25.80;91.60
580;DHT22;276;48.392;9.950;2023-07-13T12:15:45;25.70;90.50
580;DHT22;276;48.392;9.950;2023-07-13T12:18:18;25.70;90.20
580;DHT22;276;48.392;9.950;2023-07-13T12:20:44;25.70;89.10
580;DHT22;276;48.392;9.950;2023-07-13T12:23:31;25.60;89.00
580;DHT22;276;48.392;9.950;2023-07-13T12:26:02;25.60;89.10
580;DHT22;276;48.392;9.950;2023-07-13T12:31:00;25.60;89.50
580;DHT22;276;48.392;9.950;2023-07-13T12:33:32;25.60;90.00
580;DHT22;276;48.392;9.950;2023-07-13T12:36:05;25.60;90.40
580;DHT22;276;48.392;9.950;2023-07-13T12:38:32;25.60;90.50
580;DHT22;276;48.392;9.950;2023-07-13T12:41:01;25.30;90.20
580;DHT22;276;48.392;9.950;2023-07-13T12:43:34;25.30;90.40
580;DHT22;276;48.392;9.950;2023-07-13T12:48:43;25.20;91.10
580;DHT22;276;48.392;9.950;2023-07-13T12:51:14;25.20;91.30
580;DHT22;276;48.392;9.950;2023-07-13T12:53:42;25.20;91.00
580;DHT22;276;48.392;9.950;2023-07-13T12:56:19;25.20;91.00
580;DHT22;276;48.392;9.950;2023-07-13T12:58:49;25.10;90.20
580;DHT22;276;48.392;9.950;2023-07-13T13:01:21;25.10;90.60
580;DHT22;276;48.392;9.950;2023-07-13T13:03:51;25.00;89.40
580;DHT22;276;48.392;9.950;2023-07-13T13:06:27;25.00;90.20
580;DHT22;276;48.392;9.950;2023-07-13T13:08:56;24.90;90.10
580;DHT22;276;48.392;9.950;2023-07-13T13:11:24;24.80;89.50
580;DHT22;276;48.392;9.950;2023-07-13T13:13:54;24.80;90.30
580;DHT22;276;48.392;9.950;2023-07-13T13:16:33;24.70;90.90
580;DHT22;276;48.392;9.950;2023-07-13T13:19:15;24.60;90.40
580;DHT22;276;48.392;9.950;2023-07-13T13:21:43;24.60;90.90
580;DHT22;276;48.392;9.950;2023-07-13T13:24:13;24.60;90.90
580;DHT22;276;48.392;9.950;2023-07-13T13:26:42;24.60;91.00
580;DHT22;276;48.392;9.950;2023-07-13T13:29:15;24.60;91.20
580;DHT22;276;48.392;9.950;2023-07-13T13:31:42;24.60;91.20
580;DHT22;276;48.392;9.950;2023-07-13T13:34:12;24.60;90.70
580;DHT22;276;48.392;9.950;2023-07-13T13:36:39;24.60;90.60
580;DHT22;276;48.392;9.950;2023-07-13T13:39:24;24.60;91.20
580;DHT22;276;48.392;9.950;2023-07-13T13:41:52;24.70;90.70
580;DHT22;276;48.392;9.950;2023-07-13T13:44:18;24.80;90.90
580;DHT22;276;48.392;9.950;2023-07-13T13:46:53;24.90;91.20
580;DHT22;276;48.392;9.950;2023-07-13T13:49:25;25.00;91.00
580;DHT22;276;48.392;9.950;2023-07-13T13:51:52;25.00;90.70
580;DHT22;276;48.392;9.950;2023-07-13T13:54:22;25.10;91.20
580;DHT22;276;48.392;9.950;2023-07-13T13:56:50;25.10;91.00
580;DHT22;276;48.392;9.950;2023-07-13T13:59:16;25.10;90.70
580;DHT22;276;48.392;9.950;2023-07-13T14:01:44;25.10;91.10
580;DHT22;276;48.392;9.950;2023-07-13T14:04:27;25.00;90.50
580;DHT22;276;48.392;9.950;2023-07-13T14:06:53;25.00;90.30
580;DHT22;276;48.392;9.950;2023-07-13T14:09:21;25.00;90.50
580;DHT22;276;48.392;9.950;2023-07-13T14:11:48;25.00;91.20
580;DHT22;276;48.392;9.950;2023-07-13T14:14:21;24.90;90.90
580;DHT22;276;48.392;9.950;2023-07-13T14:16:47;24.80;90.60
580;DHT22;276;48.392;9.950;2023-07-13T14:19:18;24.80;90.50
580;DHT22;276;48.392;9.950;2023-07-13T14:21:46;24.70;90.50
580;DHT22;276;48.392;9.950;2023-07-13T14:24:14;24.80;91.00
580;DHT22;276;48.392;9.950;2023-07-13T14:26:43;24.80;90.80
580;DHT22;276;48.392;9.950;2023-07-13T14:29:19;24.80;91.40
580;DHT22;276;48.392;9.950;2023-07-13T14:31:45;24.80;90.90
580;DHT22;276;48.392;9.950;2023-07-13T14:34:13;24.80;91.20
580;DHT22;276;48.392;9.950;2023-07-13T14:36:45;24.90;91.00
580;DHT22;276;48.392;9.950;2023-07-13T14:39:15;24.80;90.10
580;DHT22;276;48.392;9.950;2023-07-13T14:41:46;24.80;90.40
580;DHT22;276;48.392;9.950;2023-07-13T14:46:38;24.70;89.00
580;DHT22;276;48.392;9.950;2023-07-13T14:49:07;24.70;89.10
580;DHT22;276;48.392;9.950;2023-07-13T14:51:36;24.70;88.90
580;DHT22;276;48.392;9.950;2023-07-13T14:54:04;24.70;89.90
580;DHT22;276;48.392;9.950;2023-07-13T14:56:33;24.70;90.30
580;DHT22;276;48.392;9.950;2023-07-13T14:59:01;24.80;90.40
580;DHT22;276;48.392;9.950;2023-07-13T15:01:26;24.80;90.60
580;DHT22;276;48.392;9.950;2023-07-13T15:03:57;24.90;90.60
580;DHT22;276;48.392;9.950;2023-07-13T15:06:23;25.00;90.00
580;DHT22;276;48.392;9.950;2023-07-13T15:08:51;25.00;90.20
580;DHT22;276;48.392;9.950;2023-07-13T15:11:16;25.10;90.10
580;DHT22;276;48.392;9.950;2023-07-13T15:13:43;25.10;89.00
580;DHT22;276;48.392;9.950;2023-07-13T15:16:24;25.10;89.70
580;DHT22;276;48.392;9.950;2023-07-13T15:18:53;25.10;89.10
580;DHT22;276;48.392;9.950;2023-07-13T15:21:27;25.00;89.10
580;DHT22;276;48.392;9.950;2023-07-13T15:24:00;25.00;88.60
580;DHT22;276;48.392;9.950;2023-07-13T15:26:30;25.00;89.40
580;DHT22;276;48.392;9.950;2023-07-13T15:28:56;25.00;89.60
580;DHT22;276;48.392;9.950;2023-07-13T15:31:28;25.00;90.00
580;DHT22;276;48.392;9.950;2023-07-13T15:33:55;25.10;89.80
580;DHT22;276;48.392;9.950;2023-07-13T15:36:23;25.10;90.30
580;DHT22;276;48.392;9.950;2023-07-13T15:38:54;25.10;90.10
580;DHT22;276;48.392;9.950;2023-07-13T15:41:21;25.20;90.10
580;DHT22;276;48.392;9.950;2023-07-13T15:43:53;25.20;90.10
580;DHT22;276;48.392;9.950;2023-07-13T15:46:20;25.30;88.90
580;DHT22;276;48.392;9.950;2023-07-13T15:48:49;25.30;87.10
580;DHT22;276;48.392;9.950;2023-07-13T15:51:25;25.30;86.90
580;DHT22;276;48.392;9.950;2023-07-13T15:53:56;25.40;87.50
580;DHT22;276;48.392;9.950;2023-07-13T15:56:28;25.40;87.70
580;DHT22;276;48.392;9.950;2023-07-13T15:58:55;25.40;87.70
580;DHT22;276;48.392;9.950;2023-07-13T16:01:22;25.40;87.20
580;DHT22;276;48.392;9.950;2023-07-13T16:03:49;25.40;86.70
580;DHT22;276;48.392;9.950;2023-07-13T16:06:35;25.40;86.50
580;DHT22;276;48.392;9.950;2023-07-13T16:09:04;25.40;86.00
580;DHT22;276;48.392;9.950;2023-07-13T16:11:38;25.40;84.80
580;DHT22;276;48.392;9.950;2023-07-13T16:14:04;25.40;84.70
580;DHT22;276;48.392;9.950;2023-07-13T16:16:34;25.40;84.70
580;DHT22;276;48.392;9.950;2023-07-13T16:19:06;25.40;84.90
580;DHT22;276;48.392;9.950;2023-07-13T16:21:35;25.40;84.40
580;DHT22;276;48.392;9.950;2023-07-13T16:24:03;25.40;84.50
580;DHT22;276;48.392;9.950;2023-07-13T16:26:34;25.50;84.70
580;DHT22;276;48.392;9.950;2023-07-13T16:29:17;25.50;85.10
580;DHT22;276;48.392;9.950;2023-07-13T16:34:31;25.50;83.90
580;DHT22;276;48.392;9.950;2023-07-13T16:36:58;25.50;83.30
580;DHT22;276;48.392;9.950;2023-07-13T16:39:26;25.50;83.30
580;DHT22;276;48.392;9.950;2023-07-13T16:41:53;25.40;83.70
580;DHT22;276;48.392;9.950;2023-07-13T16:44:23;25.40;84.10
580;DHT22;276;48.392;9.950;2023-07-13T16:46:53;25.40;85.00
580;DHT22;276;48.392;9.950;2023-07-13T16:49:39;25.40;85.90
580;DHT22;276;48.392;9.950;2023-07-13T16:52:11;25.40;84.00
580;DHT22;276;48.392;9.950;2023-07-13T16:54:37;25.40;84.30
580;DHT22;276;48.392;9.950;2023-07-13T16:57:15;25.40;85.20
580;DHT22;276;48.392;9.950;2023-07-13T16:59:47;25.40;85.00
580;DHT22;276;48.392;9.950;2023-07-13T17:04:56;25.30;85.40
580;DHT22;276;48.392;9.950;2023-07-13T17:07:22;25.30;85.40
580;DHT22;276;48.392;9.950;2023-07-13T17:09:49;25.30;85.60
580;DHT22;276;48.392;9.950;2023-07-13T17:12:19;25.30;85.70
580;DHT22;276;48.392;9.950;2023-07-13T17:14:45;25.30;85.50
580;DHT22;276;48.392;9.950;2023-07-13T17:17:42;25.20;84.80
580;DHT22;276;48.392;9.950;2023-07-13T17:20:19;25.20;84.30
580;DHT22;276;48.392;9.950;2023-07-13T17:22:50;25.20;85.00
580;DHT22;276;48.392;9.950;2023-07-13T17:25:19;25.20;84.40
580;DHT22;276;48.392;9.950;2023-07-13T17:27:46;25.20;84.30
580;DHT22;276;48.392;9.950;2023-07-13T17:30:18;25.20;83.90
580;DHT22;276;48.392;9.950;2023-07-13T17:32:48;25.20;83.90
580;DHT22;276;48.392;9.950;2023-07-13T17:35:27;25.20;84.00
580;DHT22;276;48.392;9.950;2023-07-13T17:37:59;25.10;84.10
580;DHT22;276;48.392;9.950;2023-07-13T17:40:25;25.10;84.20
580;DHT22;276;48.392;9.950;2023-07-13T17:42:51;25.10;84.50
580;DHT22;276;48.392;9.950;2023-07-13T17:45:22;25.10;84.70